createdAt,value
2023-04-20T00:02:21.720Z,2.95
2023-04-20T00:04:50.053Z,2.90
2023-04-20T00:07:18.217Z,2.96
2023-04-20T00:09:47.808Z,2.83
2023-04-20T00:12:15.997Z,2.79
2023-04-20T00:14:44.258Z,2.71
2023-04-20T00:17:12.460Z,2.70
2023-04-20T00:19:40.578Z,2.60
2023-04-20T00:22:08.706Z,2.61
2023-04-20T00:24:36.910Z,2.65
2023-04-20T00:27:06.897Z,2.66
2023-04-20T00:29:35.688Z,2.73
2023-04-20T00:32:03.858Z,2.73
2023-04-20T00:34:32.012Z,2.82
2023-04-20T00:37:00.241Z,2.81
2023-04-20T00:39:28.501Z,2.82
2023-04-20T00:41:56.867Z,2.82
2023-04-20T00:44:26.602Z,2.75
2023-04-20T00:46:56.644Z,2.69
2023-04-20T00:49:24.976Z,2.69
2023-04-20T00:51:54.235Z,2.66
2023-04-20T00:54:22.855Z,2.71
2023-04-20T00:56:51.977Z,2.66
2023-04-20T00:59:20.197Z,2.68
2023-04-20T01:01:49.883Z,2.65
2023-04-20T01:04:18.913Z,2.64
2023-04-20T01:06:47.117Z,2.54
2023-04-20T01:09:15.464Z,2.47
2023-04-20T01:11:43.880Z,2.49
2023-04-20T01:14:11.960Z,2.47
2023-04-20T01:16:40.289Z,2.48
2023-04-20T01:19:09.786Z,2.61
2023-04-20T01:21:38.267Z,2.33
2023-04-20T01:24:08.749Z,2.28
2023-04-20T01:26:37.094Z,2.15
2023-04-20T01:29:05.476Z,1.93
2023-04-20T01:31:33.703Z,1.91
2023-04-20T01:34:01.852Z,1.86
2023-04-20T01:36:29.929Z,1.83
2023-04-20T01:38:58.062Z,1.76
2023-04-20T01:41:28.080Z,1.70
2023-04-20T01:43:56.347Z,1.68
2023-04-20T01:46:24.750Z,1.64
2023-04-20T01:48:52.909Z,1.58
2023-04-20T01:51:21.300Z,1.48
2023-04-20T01:53:49.453Z,1.45
2023-04-20T01:56:17.726Z,1.47
2023-04-20T01:58:47.223Z,1.54
2023-04-20T02:01:15.369Z,1.44
2023-04-20T02:03:43.731Z,1.40
2023-04-20T02:06:12.111Z,1.39
2023-04-20T02:08:40.780Z,1.39
2023-04-20T02:11:08.992Z,1.38
2023-04-20T02:13:37.058Z,1.30
2023-04-20T02:16:07.440Z,1.26
2023-04-20T02:18:35.590Z,1.27
2023-04-20T02:21:03.828Z,1.22
2023-04-20T02:23:32.157Z,1.33
2023-04-20T02:26:00.344Z,1.27
2023-04-20T02:28:28.532Z,1.25
2023-04-20T02:30:56.704Z,1.09
2023-04-20T02:33:26.203Z,1.09
2023-04-20T02:35:54.674Z,1.05
2023-04-20T02:38:22.834Z,1.07
2023-04-20T02:40:51.554Z,1.16
2023-04-20T02:43:20.511Z,1.27
2023-04-20T02:45:48.700Z,1.42
2023-04-20T02:48:16.907Z,1.50
2023-04-20T02:50:46.568Z,1.38
2023-04-20T02:53:14.941Z,1.34
2023-04-20T02:55:43.048Z,1.34
2023-04-20T02:58:11.971Z,1.21
2023-04-20T03:00:40.123Z,1.21
2023-04-20T03:03:08.561Z,1.02
2023-04-20T03:05:36.718Z,0.99
2023-04-20T03:08:07.412Z,1.00
2023-04-20T03:10:35.924Z,1.01
2023-04-20T03:13:04.239Z,0.96
2023-04-20T03:15:32.498Z,0.97
2023-04-20T03:18:00.680Z,1.05
2023-04-20T03:20:29.084Z,0.99
2023-04-20T03:22:57.427Z,0.98
2023-04-20T03:25:27.337Z,0.93
2023-04-20T03:27:56.034Z,0.86
2023-04-20T03:30:24.380Z,0.89
2023-04-20T03:32:53.421Z,0.91
2023-04-20T03:35:22.434Z,0.85
2023-04-20T03:37:50.544Z,0.81
2023-04-20T03:40:18.706Z,0.79
2023-04-20T03:42:48.109Z,0.82
2023-04-20T03:45:16.492Z,0.81
2023-04-20T03:47:44.779Z,0.74
2023-04-20T03:50:13.112Z,0.66
2023-04-20T03:52:41.457Z,0.68
2023-04-20T03:55:10.893Z,0.82
2023-04-20T03:57:39.397Z,0.73
2023-04-20T04:00:11.178Z,0.91
2023-04-20T04:02:39.500Z,0.92
2023-04-20T04:05:08.967Z,0.97
2023-04-20T04:07:37.248Z,0.95
2023-04-20T04:10:26.726Z,0.89
2023-04-20T04:12:54.903Z,1.00
2023-04-20T04:15:24.677Z,0.91
2023-04-20T04:17:54.642Z,0.96
2023-04-20T04:20:22.806Z,1.00
2023-04-20T04:22:52.131Z,0.88
2023-04-20T04:25:20.559Z,0.89
2023-04-20T04:27:49.015Z,0.85
2023-04-20T04:30:17.773Z,0.87
2023-04-20T04:32:49.270Z,0.79
2023-04-20T04:35:17.765Z,0.80
2023-04-20T04:37:46.590Z,0.71
2023-04-20T04:40:15.121Z,0.67
2023-04-20T04:42:45.646Z,0.67
2023-04-20T04:45:14.940Z,0.77
2023-04-20T04:47:43.877Z,0.81
2023-04-20T04:50:14.304Z,0.84
2023-04-20T04:52:42.608Z,0.93
2023-04-20T04:55:11.211Z,1.07
2023-04-20T04:57:39.588Z,1.05
2023-04-20T05:00:12.083Z,1.03
2023-04-20T05:02:40.512Z,1.11
2023-04-20T05:05:10.298Z,1.12
2023-04-20T05:07:40.593Z,1.10
2023-04-20T05:10:09.987Z,1.17
2023-04-20T05:12:38.476Z,1.31
2023-04-20T05:15:07.987Z,1.24
2023-04-20T05:17:36.432Z,1.32
2023-04-20T05:20:06.507Z,1.46
2023-04-20T05:22:34.980Z,1.44
2023-04-20T05:25:06.780Z,1.51
2023-04-20T05:27:35.026Z,1.50
2023-04-20T05:30:18.902Z,1.46
2023-04-20T05:32:51.966Z,1.60
2023-04-20T05:35:21.458Z,1.67
2023-04-20T05:37:50.551Z,1.75
2023-04-20T05:40:20.600Z,1.76
2023-04-20T05:42:48.981Z,1.86
2023-04-20T05:45:17.487Z,1.92
2023-04-20T05:47:54.506Z,2.00
2023-04-20T05:50:23.421Z,2.07
2023-04-20T05:52:52.037Z,2.13
2023-04-20T05:55:23.006Z,2.19
2023-04-20T05:57:54.204Z,2.36
2023-04-20T06:00:25.874Z,2.39
2023-04-20T06:02:55.354Z,2.40
2023-04-20T06:05:24.412Z,2.55
2023-04-20T06:07:53.777Z,2.65
2023-04-20T06:10:24.243Z,2.75
2023-04-20T06:12:52.597Z,2.75
2023-04-20T06:15:20.875Z,2.85
2023-04-20T06:17:49.580Z,2.96
2023-04-20T06:20:18.066Z,3.05
2023-04-20T06:22:47.026Z,3.21
2023-04-20T06:25:15.865Z,3.30
2023-04-20T06:27:46.916Z,3.34
2023-04-20T06:30:16.328Z,3.44
2023-04-20T06:32:44.923Z,3.62
2023-04-20T06:35:13.277Z,3.82
2023-04-20T06:37:41.528Z,3.95
2023-04-20T06:40:10.379Z,4.01
2023-04-20T06:42:38.741Z,4.13
2023-04-20T06:45:09.662Z,4.25
2023-04-20T06:47:38.395Z,4.20
2023-04-20T06:50:10.044Z,4.12
2023-04-20T06:52:38.938Z,4.00
2023-04-20T06:55:07.624Z,3.92
2023-04-20T06:57:37.554Z,3.93
2023-04-20T07:00:09.958Z,4.02
2023-04-20T07:02:45.835Z,4.23
2023-04-20T07:05:14.829Z,4.54
2023-04-20T07:07:43.576Z,4.74
2023-04-20T07:10:14.201Z,4.79
2023-04-20T07:12:43.925Z,5.00
2023-04-20T07:15:14.260Z,5.30
2023-04-20T07:17:43.027Z,5.27
2023-04-20T07:20:11.486Z,5.64
2023-04-20T07:22:40.608Z,5.63
2023-04-20T07:25:11.117Z,5.69
2023-04-20T07:27:40.457Z,5.84
2023-04-20T07:30:10.914Z,5.87
2023-04-20T07:32:42.434Z,6.11
2023-04-20T07:35:12.167Z,6.28
2023-04-20T07:37:40.871Z,6.21
2023-04-20T07:40:10.575Z,6.02
2023-04-20T07:42:39.056Z,5.92
2023-04-20T07:45:08.364Z,6.12
2023-04-20T07:47:37.229Z,6.23
2023-04-20T07:50:08.876Z,6.39
2023-04-20T07:52:37.495Z,6.21
2023-04-20T07:55:08.264Z,6.49
2023-04-20T07:57:38.649Z,6.25
2023-04-20T08:00:10.023Z,6.43
2023-04-20T08:02:38.929Z,6.21
2023-04-20T08:05:10.246Z,6.27
2023-04-20T08:07:39.011Z,6.38
2023-04-20T08:10:08.587Z,6.20
2023-04-20T08:12:38.164Z,6.50
2023-04-20T08:15:08.036Z,6.88
2023-04-20T08:17:36.513Z,6.94
2023-04-20T08:20:06.419Z,7.21
2023-04-20T08:22:36.160Z,7.06
2023-04-20T08:25:04.497Z,7.24
2023-04-20T08:27:33.482Z,7.23
2023-04-20T08:30:04.441Z,7.45
2023-04-20T08:32:32.940Z,7.57
2023-04-20T08:35:01.974Z,7.49
2023-04-20T08:37:32.541Z,7.63
2023-04-20T08:40:03.804Z,7.21
2023-04-20T08:42:32.969Z,7.49
2023-04-20T08:45:01.325Z,7.70
2023-04-20T08:47:31.067Z,8.04
2023-04-20T08:50:01.775Z,7.94
2023-04-20T08:52:30.932Z,7.87
2023-04-20T08:54:59.628Z,7.79
2023-04-20T08:57:29.534Z,7.89
2023-04-20T08:59:58.997Z,7.72
2023-04-20T09:02:27.597Z,7.81
2023-04-20T09:05:06.280Z,7.88
2023-04-20T09:07:34.965Z,8.16
2023-04-20T09:10:03.963Z,8.30
2023-04-20T09:12:43.185Z,8.24
2023-04-20T09:15:12.598Z,8.00
2023-04-20T09:17:42.144Z,8.18
2023-04-20T09:20:11.528Z,7.94
2023-04-20T09:22:40.390Z,7.98
2023-04-20T09:25:16.458Z,8.06
2023-04-20T09:27:56.965Z,8.14
2023-04-20T09:30:25.918Z,8.04
2023-04-20T09:33:04.404Z,7.94
2023-04-20T09:35:34.141Z,7.94
2023-04-20T09:38:02.817Z,7.95
2023-04-20T09:40:31.549Z,7.70
2023-04-20T09:43:09.267Z,7.60
2023-04-20T09:45:40.508Z,7.93
2023-04-20T09:48:09.803Z,7.71
2023-04-20T09:50:48.601Z,7.89
2023-04-20T09:53:18.914Z,8.01
2023-04-20T09:55:49.583Z,7.87
2023-04-20T09:58:21.077Z,8.02
2023-04-20T10:00:50.500Z,7.99
2023-04-20T10:03:19.521Z,7.78
2023-04-20T10:05:48.158Z,7.82
2023-04-20T10:08:16.775Z,8.23
2023-04-20T10:10:48.068Z,7.77
2023-04-20T10:13:19.500Z,7.83
2023-04-20T10:15:53.139Z,8.24
2023-04-20T10:18:25.095Z,8.38
2023-04-20T10:21:06.382Z,8.57
2023-04-20T10:23:35.123Z,8.68
2023-04-20T10:26:03.929Z,8.56
2023-04-20T10:28:41.943Z,8.04
2023-04-20T10:31:14.918Z,8.14
2023-04-20T10:33:53.882Z,7.82
2023-04-20T10:36:27.451Z,7.67
2023-04-20T10:38:56.211Z,7.64
2023-04-20T10:41:24.998Z,7.86
2023-04-20T10:43:53.381Z,8.06
2023-04-20T10:46:24.630Z,8.28
2023-04-20T10:48:54.248Z,8.02
2023-04-20T10:51:23.352Z,7.88
2023-04-20T10:54:02.405Z,8.12
2023-04-20T10:56:38.243Z,7.99
2023-04-20T10:59:09.933Z,7.82
2023-04-20T11:01:41.198Z,8.14
2023-04-20T11:04:11.302Z,8.08
2023-04-20T11:06:40.833Z,8.06
2023-04-20T11:09:20.214Z,8.40
2023-04-20T11:12:01.600Z,8.42
2023-04-20T11:14:30.385Z,8.58
2023-04-20T11:17:01.784Z,8.61
2023-04-20T11:19:32.859Z,9.15
2023-04-20T11:22:02.692Z,8.98
2023-04-20T11:24:33.066Z,8.49
2023-04-20T11:27:04.695Z,8.39
2023-04-20T11:29:35.169Z,8.48
2023-04-20T11:32:07.371Z,8.53
2023-04-20T11:34:38.435Z,8.52
2023-04-20T11:37:07.715Z,8.65
2023-04-20T11:39:36.496Z,8.31
2023-04-20T11:42:06.022Z,8.13
2023-04-20T11:44:36.910Z,8.04
2023-04-20T11:47:08.245Z,7.94
2023-04-20T11:49:36.994Z,7.87
2023-04-20T11:52:05.641Z,7.85
2023-04-20T11:54:40.667Z,8.07
2023-04-20T11:57:08.951Z,7.95
2023-04-20T11:59:37.442Z,7.88
2023-04-20T12:02:07.741Z,7.97
2023-04-20T12:04:36.731Z,7.73
2023-04-20T12:07:05.081Z,7.60
2023-04-20T12:09:37.448Z,7.91
2023-04-20T12:12:07.685Z,7.83
2023-04-20T12:14:36.844Z,7.68
2023-04-20T12:17:07.275Z,7.94
2023-04-20T12:19:36.267Z,7.75
2023-04-20T12:22:04.643Z,7.86
2023-04-20T12:24:33.035Z,7.89
2023-04-20T12:27:03.875Z,7.91
2023-04-20T12:29:33.294Z,8.12
2023-04-20T12:32:02.789Z,7.99
2023-04-20T12:34:32.383Z,7.77
2023-04-20T12:37:01.276Z,7.78
2023-04-20T12:39:29.761Z,7.76
2023-04-20T12:41:58.303Z,7.71
2023-04-20T12:44:27.020Z,7.60
2023-04-20T12:46:55.872Z,7.35
2023-04-20T12:49:24.399Z,7.29
2023-04-20T12:51:53.938Z,7.29
2023-04-20T12:54:22.264Z,7.39
2023-04-20T12:56:50.998Z,7.34
2023-04-20T12:59:19.760Z,7.44
2023-04-20T13:01:48.861Z,7.35
2023-04-20T13:04:17.717Z,7.32
2023-04-20T13:06:46.425Z,7.33
2023-04-20T13:09:16.071Z,7.32
2023-04-20T13:11:44.694Z,7.57
2023-04-20T13:14:12.935Z,7.69
2023-04-20T13:16:41.725Z,7.65
2023-04-20T13:19:10.049Z,7.79
2023-04-20T13:21:38.657Z,7.75
2023-04-20T13:24:07.595Z,7.73
2023-04-20T13:26:38.025Z,7.70
2023-04-20T13:29:06.407Z,7.77
2023-04-20T13:31:34.870Z,7.84
2023-04-20T13:34:03.377Z,7.79
2023-04-20T13:36:32.850Z,7.96
2023-04-20T13:39:03.791Z,8.04
2023-04-20T13:41:32.450Z,8.16
2023-04-20T13:44:02.687Z,8.03
2023-04-20T13:46:31.285Z,8.07
2023-04-20T13:48:59.972Z,8.00
2023-04-20T13:51:30.415Z,7.91
2023-04-20T13:53:58.827Z,8.07
2023-04-20T13:56:27.394Z,8.08
2023-04-20T13:58:56.199Z,7.91
2023-04-20T14:01:27.063Z,8.10
2023-04-20T14:03:57.233Z,8.03
2023-04-20T14:06:25.750Z,7.91
2023-04-20T14:08:54.065Z,7.93
2023-04-20T14:11:22.905Z,8.21
2023-04-20T14:13:51.998Z,8.30
2023-04-20T14:16:20.380Z,8.37
2023-04-20T14:18:50.472Z,8.09
2023-04-20T14:21:18.804Z,8.09
2023-04-20T14:23:47.190Z,8.14
2023-04-20T14:26:15.377Z,8.24
2023-04-20T14:28:43.878Z,8.32
2023-04-20T14:31:12.162Z,8.50
2023-04-20T14:33:41.684Z,8.55
2023-04-20T14:36:11.659Z,8.39
2023-04-20T14:38:40.558Z,8.62
2023-04-20T14:41:09.412Z,8.62
2023-04-20T14:43:38.168Z,8.65
2023-04-20T14:46:07.476Z,8.69
2023-04-20T14:48:39.111Z,8.60
2023-04-20T14:51:07.596Z,8.52
2023-04-20T14:53:37.630Z,8.64
2023-04-20T14:56:06.241Z,8.59
2023-04-20T14:58:36.432Z,8.29
2023-04-20T15:01:04.925Z,8.28
2023-04-20T15:03:33.639Z,8.28
2023-04-20T15:06:03.979Z,8.57
2023-04-20T15:08:33.906Z,8.68
2023-04-20T15:11:05.254Z,8.74
2023-04-20T15:13:33.513Z,8.75
2023-04-20T15:16:01.971Z,8.88
2023-04-20T15:18:30.871Z,8.90
2023-04-20T15:20:59.582Z,9.03
2023-04-20T15:23:31.188Z,8.86
2023-04-20T15:26:01.136Z,8.98
2023-04-20T15:28:30.650Z,8.89
2023-04-20T15:30:59.024Z,8.84
2023-04-20T15:33:27.738Z,8.71
2023-04-20T15:35:56.406Z,8.72
2023-04-20T15:38:25.298Z,8.71
2023-04-20T15:40:55.447Z,8.69
2023-04-20T15:43:23.743Z,8.72
2023-04-20T15:45:53.776Z,8.72
2023-04-20T15:48:22.744Z,8.78
2023-04-20T15:50:53.011Z,8.78
2023-04-20T15:53:22.361Z,8.71
2023-04-20T15:55:51.564Z,8.82
2023-04-20T15:58:20.077Z,8.97
2023-04-20T16:00:49.314Z,8.95
2023-04-20T16:03:19.805Z,8.86
2023-04-20T16:05:48.655Z,8.98
2023-04-20T16:08:19.342Z,9.02
2023-04-20T16:10:47.820Z,9.09
2023-04-20T16:13:16.511Z,9.33
2023-04-20T16:15:45.118Z,9.77
2023-04-20T16:18:13.458Z,9.68
2023-04-20T16:20:43.292Z,9.65
2023-04-20T16:23:11.683Z,9.50
2023-04-20T16:25:40.255Z,9.90
2023-04-20T16:28:09.347Z,9.82
2023-04-20T16:30:37.772Z,9.64
2023-04-20T16:33:06.781Z,9.61
2023-04-20T16:35:35.242Z,9.43
2023-04-20T16:38:04.973Z,9.30
2023-04-20T16:40:34.342Z,9.22
2023-04-20T16:43:03.180Z,9.65
2023-04-20T16:45:32.321Z,9.87
2023-04-20T16:48:01.668Z,9.83
2023-04-20T16:50:30.702Z,10.13
2023-04-20T16:52:59.844Z,10.42
2023-04-20T16:55:29.803Z,10.13
2023-04-20T16:58:01.036Z,9.75
2023-04-20T17:00:31.105Z,9.66
2023-04-20T17:03:01.620Z,9.55
2023-04-20T17:05:30.577Z,9.55
2023-04-20T17:08:00.051Z,9.39
2023-04-20T17:10:31.327Z,9.41
2023-04-20T17:13:00.143Z,9.22
2023-04-20T17:15:30.351Z,9.14
2023-04-20T17:17:59.010Z,9.17
2023-04-20T17:20:27.661Z,9.10
2023-04-20T17:22:56.008Z,9.13
2023-04-20T17:25:24.580Z,9.08
2023-04-20T17:27:54.507Z,9.08
2023-04-20T17:30:23.247Z,9.01
2023-04-20T17:32:52.016Z,9.02
2023-04-20T17:35:21.304Z,9.03
2023-04-20T17:37:49.801Z,9.00
2023-04-20T17:40:18.370Z,8.94
2023-04-20T17:42:46.632Z,8.93
2023-04-20T17:45:17.319Z,8.92
2023-04-20T17:47:47.510Z,8.90
2023-04-20T17:50:16.746Z,8.86
2023-04-20T17:52:45.435Z,8.85
2023-04-20T17:55:14.249Z,8.82
2023-04-20T17:57:47.411Z,8.77
2023-04-20T18:00:19.164Z,8.74
2023-04-20T18:02:48.146Z,8.68
2023-04-20T18:05:17.156Z,8.65
2023-04-20T18:07:45.947Z,8.57
2023-04-20T18:10:16.004Z,8.54
2023-04-20T18:12:45.240Z,8.53
2023-04-20T18:15:14.272Z,8.49
2023-04-20T18:17:44.652Z,8.45
2023-04-20T18:20:13.807Z,8.39
2023-04-20T18:22:42.205Z,8.37
2023-04-20T18:25:11.237Z,8.35
2023-04-20T18:27:39.882Z,8.33
2023-04-20T18:30:09.584Z,8.30
2023-04-20T18:32:38.693Z,8.32
2023-04-20T18:35:09.766Z,8.23
2023-04-20T18:37:38.531Z,8.24
2023-04-20T18:40:08.347Z,8.11
2023-04-20T18:42:36.646Z,8.00
2023-04-20T18:45:06.347Z,7.93
2023-04-20T18:47:34.842Z,7.84
2023-04-20T18:50:03.003Z,7.75
2023-04-20T18:52:35.908Z,7.75
2023-04-20T18:55:04.894Z,7.85
2023-04-20T18:57:34.038Z,7.85
2023-04-20T19:00:07.310Z,7.93
2023-04-20T19:02:36.240Z,7.97
2023-04-20T19:05:05.135Z,8.01
2023-04-20T19:07:34.700Z,8.05
2023-04-20T19:10:02.923Z,8.06
2023-04-20T19:12:32.718Z,8.09
2023-04-20T19:15:01.470Z,8.14
2023-04-20T19:17:29.899Z,8.13
2023-04-20T19:19:58.144Z,8.15
2023-04-20T19:22:26.579Z,8.13
2023-04-20T19:24:56.452Z,8.21
2023-04-20T19:27:24.696Z,8.23
2023-04-20T19:29:53.968Z,8.16
2023-04-20T19:32:22.312Z,8.22
2023-04-20T19:34:52.562Z,8.15
2023-04-20T19:37:20.927Z,8.20
2023-04-20T19:39:49.367Z,8.17
2023-04-20T19:42:19.991Z,8.13
2023-04-20T19:44:48.868Z,8.08
2023-04-20T19:47:17.028Z,8.07
2023-04-20T19:49:45.818Z,8.06
2023-04-20T19:52:15.264Z,8.05
2023-04-20T19:54:44.021Z,8.05
2023-04-20T19:57:12.408Z,8.05
2023-04-20T19:59:42.687Z,8.11
2023-04-20T20:02:11.218Z,8.06
2023-04-20T20:04:39.853Z,8.09
2023-04-20T20:07:08.569Z,8.07
2023-04-20T20:09:37.745Z,8.02
2023-04-20T20:12:08.588Z,7.99
2023-04-20T20:14:37.683Z,7.95
2023-04-20T20:17:08.000Z,7.96
2023-04-20T20:19:36.630Z,7.96
2023-04-20T20:22:05.012Z,7.92
2023-04-20T20:24:33.321Z,7.96
2023-04-20T20:27:02.425Z,7.96
2023-04-20T20:29:31.208Z,7.95
2023-04-20T20:32:00.340Z,7.92
2023-04-20T20:34:30.234Z,7.87
2023-04-20T20:36:59.038Z,7.78
2023-04-20T20:39:27.953Z,7.65
2023-04-20T20:41:57.536Z,7.55
2023-04-20T20:44:28.179Z,7.46
2023-04-20T20:46:57.217Z,7.49
2023-04-20T20:49:26.088Z,7.38
2023-04-20T20:51:56.141Z,7.27
2023-04-20T20:54:24.675Z,7.13
2023-04-20T20:56:53.765Z,7.16
2023-04-20T20:59:25.424Z,7.13
2023-04-20T21:01:54.481Z,7.08
2023-04-20T21:04:23.146Z,7.13
2023-04-20T21:06:51.699Z,7.20
2023-04-20T21:09:21.536Z,7.26
2023-04-20T21:11:53.821Z,7.32
2023-04-20T21:14:22.624Z,7.40
2023-04-20T21:16:50.919Z,7.45
2023-04-20T21:19:19.606Z,7.49
2023-04-20T21:21:48.070Z,7.55
2023-04-20T21:24:16.261Z,7.64
2023-04-20T21:26:46.235Z,7.64
2023-04-20T21:29:14.651Z,7.66
2023-04-20T21:31:43.034Z,7.64
2023-04-20T21:34:13.807Z,7.66
2023-04-20T21:36:42.042Z,7.70
2023-04-20T21:39:10.064Z,7.69
2023-04-20T21:41:38.515Z,7.76
2023-04-20T21:44:08.244Z,7.70
2023-04-20T21:46:36.728Z,7.77
2023-04-20T21:49:05.435Z,7.83
2023-04-20T21:51:34.150Z,7.85
2023-04-20T21:54:02.913Z,7.90
2023-04-20T21:56:31.236Z,7.90
2023-04-20T21:58:59.829Z,7.88
2023-04-20T22:01:29.682Z,7.90
2023-04-20T22:03:58.322Z,7.85
2023-04-20T22:06:27.203Z,7.92
2023-04-20T22:08:56.513Z,7.90
2023-04-20T22:11:24.660Z,7.82
2023-04-20T22:13:53.036Z,7.81
2023-04-20T22:16:21.953Z,7.73
2023-04-20T22:18:52.114Z,7.64
2023-04-20T22:21:20.491Z,7.69
2023-04-20T22:23:48.809Z,7.67
2023-04-20T22:26:17.297Z,7.63
2023-04-20T22:28:45.549Z,7.68
2023-04-20T22:31:14.454Z,7.67
2023-04-20T22:33:42.621Z,7.63
2023-04-20T22:36:12.294Z,7.63
2023-04-20T22:38:41.201Z,7.73
2023-04-20T22:41:09.717Z,7.64
2023-04-20T22:43:38.002Z,7.60
2023-04-20T22:46:06.421Z,7.57
2023-04-20T22:48:35.386Z,7.67
2023-04-20T22:51:03.485Z,7.62
2023-04-20T22:53:34.117Z,7.61
2023-04-20T22:56:06.917Z,7.59
2023-04-20T22:58:35.332Z,7.61
2023-04-20T23:01:04.100Z,7.63
2023-04-20T23:03:32.651Z,7.56
2023-04-20T23:06:01.066Z,7.53
2023-04-20T23:08:29.669Z,7.57
2023-04-20T23:10:59.355Z,7.55
2023-04-20T23:13:27.502Z,7.52
2023-04-20T23:15:55.986Z,7.51
2023-04-20T23:18:24.034Z,7.52
2023-04-20T23:20:52.177Z,7.53
2023-04-20T23:23:20.509Z,7.48
2023-04-20T23:25:48.734Z,7.56
2023-04-20T23:28:18.759Z,7.53
2023-04-20T23:30:47.232Z,7.52
2023-04-20T23:33:16.061Z,7.51
2023-04-20T23:35:44.327Z,7.47
2023-04-20T23:38:12.709Z,7.46
2023-04-20T23:40:40.878Z,7.45
2023-04-20T23:43:09.215Z,7.43
2023-04-20T23:45:38.800Z,7.42
2023-04-20T23:48:07.508Z,7.32
2023-04-20T23:50:37.110Z,7.34
2023-04-20T23:53:05.871Z,7.30
2023-04-20T23:55:34.037Z,7.22
2023-04-20T23:58:02.252Z,7.17
